Time,TemperatureF,DewpointF,PressureIn,WindDirection,WindDirectionDegrees,WindSpeedMPH,WindSpeedGustMPH,Humidity,HourlyPrecipIn,Conditions,Clouds,dailyrainin,SoftwareType,DateUTC
2013-04-24 00:00:00,56.3,54.0,30.14,North,5,0.0,3.0,92,0.00,,,0.00,Weather View 32 v70,2013-04-24 04:00:00,
2013-04-24 00:10:00,55.6,53.0,30.14,North,5,0.0,3.0,91,0.00,,,0.00,Weather View 32 v70,2013-04-24 04:10:00,
2013-04-24 00:20:00,55.1,53.1,30.14,North,5,1.0,3.0,93,0.00,,,0.00,Weather View 32 v70,2013-04-24 04:20:00,
2013-04-24 00:30:00,54.9,52.9,30.15,North,5,0.0,3.0,93,0.00,,,0.00,Weather View 32 v70,2013-04-24 04:30:00,
2013-04-24 00:40:00,54.7,52.7,30.14,North,5,1.0,3.0,93,0.00,,,0.00,Weather View 32 v70,2013-04-24 04:40:00,
2013-04-24 00:50:00,54.4,52.4,30.14,North,5,0.0,2.0,93,0.00,,,0.00,Weather View 32 v70,2013-04-24 04:50:00,
2013-04-24 00:57:00,54.4,52.4,30.14,North,5,0.0,2.0,93,0.00,,,0.00,Weather View 32 v70,2013-04-24 04:57:00,
2013-04-24 01:00:00,54.3,52.3,30.14,North,5,1.0,2.0,93,0.00,,,0.00,Weather View 32 v70,2013-04-24 05:00:00,
2013-04-24 01:10:00,53.7,51.7,30.14,North,5,0.0,2.0,93,0.00,,,0.00,Weather View 32 v70,2013-04-24 05:10:00,
2013-04-24 01:20:00,53.5,51.5,30.14,North,5,1.0,2.0,93,0.00,,,0.00,Weather View 32 v70,2013-04-24 05:20:00,
2013-04-24 01:30:00,53.5,51.5,30.14,WNW,302,0.0,2.0,93,0.00,,,0.00,Weather View 32 v70,2013-04-24 05:30:00,
2013-04-24 01:40:00,52.9,50.9,30.13,WNW,302,1.0,2.0,93,0.00,,,0.00,Weather View 32 v70,2013-04-24 05:40:00,
2013-04-24 01:50:00,52.9,51.2,30.13,WNW,302,0.0,2.0,94,0.00,,,0.00,Weather View 32 v70,2013-04-24 05:50:00,
2013-04-24 01:58:00,52.9,51.2,30.13,WNW,302,0.0,2.0,94,0.00,,,0.00,Weather View 32 v70,2013-04-24 05:58:00,
2013-04-24 02:10:00,52.9,51.2,30.12,WNW,302,0.0,2.0,94,0.00,,,0.00,Weather View 32 v70,2013-04-24 06:10:00,
2013-04-24 02:20:00,52.5,50.5,30.12,WNW,302,0.0,2.0,93,0.00,,,0.00,Weather View 32 v70,2013-04-24 06:20:00,
2013-04-24 02:30:00,52.0,50.0,30.11,WNW,302,2.0,2.0,93,0.00,,,0.00,Weather View 32 v70,2013-04-24 06:30:00,
2013-04-24 02:40:00,52.1,50.1,30.10,WNW,302,1.0,2.0,93,0.00,,,0.00,Weather View 32 v70,2013-04-24 06:40:00,
2013-04-24 02:50:00,51.8,49.8,30.10,West,279,0.0,3.0,93,0.00,,,0.00,Weather View 32 v70,2013-04-24 06:50:00,
2013-04-24 02:58:00,51.8,49.8,30.10,West,279,0.0,3.0,93,0.00,,,0.00,Weather View 32 v70,2013-04-24 06:58:00,
2013-04-24 03:10:00,51.9,50.2,30.10,West,279,1.0,3.0,94,0.00,,,0.00,Weather View 32 v70,2013-04-24 07:10:00,
2013-04-24 03:20:00,52.0,50.3,30.10,West,279,2.0,3.0,94,0.00,,,0.00,Weather View 32 v70,2013-04-24 07:20:00,
2013-04-24 03:30:00,51.5,49.8,30.10,West,279,0.0,3.0,94,0.00,,,0.00,Weather View 32 v70,2013-04-24 07:30:00,
2013-04-24 03:40:00,51.3,49.6,30.10,West,279,1.0,3.0,94,0.00,,,0.00,Weather View 32 v70,2013-04-24 07:40:00,
2013-04-24 03:50:00,51.2,49.5,30.10,West,279,1.0,3.0,94,0.00,,,0.00,Weather View 32 v70,2013-04-24 07:50:00,
2013-04-24 03:59:00,51.2,49.5,30.10,West,279,1.0,3.0,94,0.00,,,0.00,Weather View 32 v70,2013-04-24 07:59:00,
2013-04-24 04:00:00,51.3,49.6,30.10,West,279,1.0,3.0,94,0.00,,,0.00,Weather View 32 v70,2013-04-24 08:00:00,
2013-04-24 04:10:00,51.4,49.7,30.10,West,279,2.0,3.0,94,0.00,,,0.00,Weather View 32 v70,2013-04-24 08:10:00,
2013-04-24 04:20:00,51.4,49.7,30.10,West,279,2.0,3.0,94,0.00,,,0.00,Weather View 32 v70,2013-04-24 08:20:00,
2013-04-24 04:30:00,51.4,49.7,30.10,West,279,2.0,3.0,94,0.00,,,0.00,Weather View 32 v70,2013-04-24 08:30:00,
2013-04-24 04:40:00,51.2,49.5,30.10,West,279,1.0,3.0,94,0.00,,,0.00,Weather View 32 v70,2013-04-24 08:40:00,
2013-04-24 04:50:00,51.1,49.4,30.10,West,279,3.0,3.0,94,0.00,,,0.00,Weather View 32 v70,2013-04-24 08:50:00,
2013-04-24 04:59:00,51.1,49.4,30.10,West,279,3.0,3.0,94,0.00,,,0.00,Weather View 32 v70,2013-04-24 08:59:00,
2013-04-24 05:00:00,51.2,49.8,30.10,West,279,3.0,3.0,95,0.00,,,0.00,Weather View 32 v70,2013-04-24 09:00:00,
2013-04-24 05:10:00,51.1,49.4,30.10,West,279,2.0,3.0,94,0.00,,,0.00,Weather View 32 v70,2013-04-24 09:10:00,
2013-04-24 05:20:00,50.7,49.0,30.10,West,279,2.0,3.0,94,0.00,,,0.00,Weather View 32 v70,2013-04-24 09:20:00,
2013-04-24 05:30:00,50.3,48.6,30.11,West,279,2.0,3.0,94,0.00,,,0.00,Weather View 32 v70,2013-04-24 09:30:00,
2013-04-24 05:40:00,50.1,48.4,30.11,West,279,1.0,3.0,94,0.00,,,0.00,Weather View 32 v70,2013-04-24 09:40:00,
2013-04-24 05:50:00,49.8,48.1,30.11,West,279,2.0,3.0,94,0.00,,,0.00,Weather View 32 v70,2013-04-24 09:50:00,
2013-04-24 06:00:00,49.7,48.0,30.11,West,279,1.0,3.0,94,0.00,,,0.00,Weather View 32 v70,2013-04-24 10:00:00,
2013-04-24 06:10:00,49.9,48.5,30.11,West,279,0.0,3.0,95,0.00,,,0.00,Weather View 32 v70,2013-04-24 10:10:00,
2013-04-24 06:20:00,50.2,48.8,30.11,West,279,0.0,3.0,95,0.00,,,0.00,Weather View 32 v70,2013-04-24 10:20:00,
2013-04-24 06:30:00,50.4,49.0,30.11,West,279,0.0,3.0,95,0.00,,,0.00,Weather View 32 v70,2013-04-24 10:30:00,
2013-04-24 06:40:00,50.6,49.2,30.12,West,279,1.0,2.0,95,0.00,,,0.00,Weather View 32 v70,2013-04-24 10:40:00,
2013-04-24 06:50:00,50.5,49.1,30.12,West,279,1.0,2.0,95,0.00,,,0.00,Weather View 32 v70,2013-04-24 10:50:00,
2013-04-24 07:00:00,50.8,49.4,30.12,West,279,1.0,2.0,95,0.00,,,0.00,Weather View 32 v70,2013-04-24 11:00:00,
2013-04-24 07:10:00,51.1,49.7,30.13,West,279,1.0,2.0,95,0.00,,,0.00,Weather View 32 v70,2013-04-24 11:10:00,
2013-04-24 07:20:00,51.4,50.0,30.13,West,279,1.0,2.0,95,0.00,,,0.00,Weather View 32 v70,2013-04-24 11:20:00,
2013-04-24 07:30:00,51.7,50.6,30.13,West,279,1.0,2.0,96,0.00,,,0.00,Weather View 32 v70,2013-04-24 11:30:00,
2013-04-24 07:40:00,52.1,51.0,30.14,West,279,3.0,3.0,96,0.00,,,0.00,Weather View 32 v70,2013-04-24 11:40:00,
2013-04-24 07:50:00,52.5,51.4,30.14,West,279,2.0,3.0,96,0.00,,,0.00,Weather View 32 v70,2013-04-24 11:50:00,
2013-04-24 08:00:00,53.3,52.2,30.14,West,279,0.0,3.0,96,0.00,,,0.00,Weather View 32 v70,2013-04-24 12:00:00,
2013-04-24 08:01:00,53.3,52.2,30.14,West,279,0.0,3.0,96,0.00,,,0.00,Weather View 32 v70,2013-04-24 12:01:00,
2013-04-24 08:10:00,54.7,53.6,30.14,West,279,1.0,3.0,96,0.00,,,0.00,Weather View 32 v70,2013-04-24 12:10:00,
2013-04-24 08:20:00,56.5,55.7,30.15,West,279,0.0,3.0,97,0.00,,,0.00,Weather View 32 v70,2013-04-24 12:20:00,
2013-04-24 08:30:00,57.9,57.1,30.15,West,279,0.0,3.0,97,0.00,,,0.00,Weather View 32 v70,2013-04-24 12:30:00,
2013-04-24 08:40:00,59.7,58.8,30.15,West,279,0.0,3.0,97,0.00,,,0.00,Weather View 32 v70,2013-04-24 12:40:00,
2013-04-24 08:50:00,62.0,61.1,30.16,West,272,0.0,2.0,97,0.00,,,0.00,Weather View 32 v70,2013-04-24 12:50:00,
2013-04-24 09:00:00,64.2,62.7,30.15,NE,36,1.0,2.0,95,0.00,,,0.00,Weather View 32 v70,2013-04-24 13:00:00,
2013-04-24 09:01:00,64.2,62.7,30.15,NE,36,1.0,2.0,95,0.00,,,0.00,Weather View 32 v70,2013-04-24 13:01:00,
2013-04-24 09:10:00,65.9,62.9,30.15,NE,51,0.0,2.0,90,0.00,,,0.00,Weather View 32 v70,2013-04-24 13:10:00,
2013-04-24 09:20:00,66.2,62.5,30.15,NE,51,0.0,2.0,88,0.00,,,0.00,Weather View 32 v70,2013-04-24 13:20:00,
2013-04-24 09:30:00,66.2,62.8,30.16,ENE,75,0.0,2.0,89,0.00,,,0.00,Weather View 32 v70,2013-04-24 13:30:00,
2013-04-24 09:40:00,67.0,63.0,30.16,ENE,75,0.0,2.0,87,0.00,,,0.00,Weather View 32 v70,2013-04-24 13:40:00,
2013-04-24 09:50:00,68.2,63.5,30.15,SSE,167,0.0,2.0,85,0.00,,,0.00,Weather View 32 v70,2013-04-24 13:50:00,
2013-04-24 10:00:00,70.0,62.8,30.15,SSE,150,4.0,4.0,78,0.00,,,0.00,Weather View 32 v70,2013-04-24 14:00:00,
2013-04-24 10:02:00,70.0,62.8,30.15,SSE,150,4.0,4.0,78,0.00,,,0.00,Weather View 32 v70,2013-04-24 14:02:00,
2013-04-24 10:10:00,71.0,63.0,30.15,ENE,74,5.0,7.0,76,0.00,,,0.00,Weather View 32 v70,2013-04-24 14:10:00,
2013-04-24 10:20:00,71.6,62.5,30.15,SE,124,4.0,7.0,73,0.00,,,0.00,Weather View 32 v70,2013-04-24 14:20:00,
2013-04-24 10:30:00,72.1,62.5,30.15,East,98,2.0,10.0,72,0.00,,,0.00,Weather View 32 v70,2013-04-24 14:30:00,
2013-04-24 10:40:00,72.1,62.5,30.15,SSE,152,4.0,10.0,72,0.00,,,0.00,Weather View 32 v70,2013-04-24 14:40:00,
2013-04-24 10:50:00,72.7,62.7,30.15,East,91,3.0,10.0,71,0.00,,,0.00,Weather View 32 v70,2013-04-24 14:50:00,
2013-04-24 11:00:00,73.0,63.4,30.15,South,178,2.0,10.0,72,0.00,,,0.00,Weather View 32 v70,2013-04-24 15:00:00,
2013-04-24 11:03:00,73.0,63.4,30.15,South,178,2.0,10.0,72,0.00,,,0.00,Weather View 32 v70,2013-04-24 15:03:00,
2013-04-24 11:10:00,73.1,63.1,30.15,SSE,161,3.0,10.0,71,0.00,,,0.00,Weather View 32 v70,2013-04-24 15:10:00,
2013-04-24 11:20:00,73.8,62.1,30.14,ESE,113,1.0,10.0,67,0.00,,,0.00,Weather View 32 v70,2013-04-24 15:20:00,
2013-04-24 11:30:00,74.2,63.7,30.14,SE,133,3.0,9.0,70,0.00,,,0.00,Weather View 32 v70,2013-04-24 15:30:00,
2013-04-24 11:40:00,74.7,60.8,30.14,East,96,5.0,9.0,62,0.00,,,0.00,Weather View 32 v70,2013-04-24 15:40:00,
2013-04-24 11:50:00,75.8,60.4,30.14,East,96,1.0,9.0,59,0.00,,,0.00,Weather View 32 v70,2013-04-24 15:50:00,
2013-04-24 12:00:00,75.2,62.6,30.14,SSE,160,2.0,7.0,65,0.00,,,0.00,Weather View 32 v70,2013-04-24 16:00:00,
2013-04-24 12:03:00,75.2,62.6,30.14,SSE,160,2.0,7.0,65,0.00,,,0.00,Weather View 32 v70,2013-04-24 16:03:00,
2013-04-24 12:10:00,75.5,60.6,30.14,SSE,165,1.0,7.0,60,0.00,,,0.00,Weather View 32 v70,2013-04-24 16:10:00,
2013-04-24 12:20:00,76.2,60.3,30.15,SSE,150,0.0,7.0,58,0.00,,,0.00,Weather View 32 v70,2013-04-24 16:20:00,
2013-04-24 12:30:00,76.3,60.4,30.14,SE,142,1.0,7.0,58,0.00,,,0.00,Weather View 32 v70,2013-04-24 16:30:00,
2013-04-24 12:40:00,76.9,60.0,30.14,South,182,4.0,7.0,56,0.00,,,0.00,Weather View 32 v70,2013-04-24 16:40:00,
2013-04-24 12:50:00,77.3,59.8,30.14,South,175,0.0,7.0,55,0.00,,,0.00,Weather View 32 v70,2013-04-24 16:50:00,
2013-04-24 13:00:00,77.4,59.4,30.14,South,175,0.0,7.0,54,0.00,,,0.00,Weather View 32 v70,2013-04-24 17:00:00,
2013-04-24 13:10:00,77.6,59.1,30.13,SE,138,0.0,7.0,53,0.00,,,0.00,Weather View 32 v70,2013-04-24 17:10:00,
2013-04-24 13:20:00,77.4,57.8,30.13,SE,136,0.0,7.0,51,0.00,,,0.00,Weather View 32 v70,2013-04-24 17:20:00,
2013-04-24 13:30:00,78.4,58.7,30.13,SE,136,0.0,7.0,51,0.00,,,0.00,Weather View 32 v70,2013-04-24 17:30:00,
2013-04-24 13:40:00,78.9,57.5,30.12,East,97,0.0,5.0,48,0.00,,,0.00,Weather View 32 v70,2013-04-24 17:40:00,
2013-04-24 13:50:00,79.1,57.1,30.12,East,84,0.0,3.0,47,0.00,,,0.00,Weather View 32 v70,2013-04-24 17:50:00,
2013-04-24 14:00:00,79.6,57.5,30.12,ENE,74,0.0,3.0,47,0.00,,,0.00,Weather View 32 v70,2013-04-24 18:00:00,
2013-04-24 14:05:00,79.6,57.5,30.12,ENE,74,0.0,3.0,47,0.00,,,0.00,Weather View 32 v70,2013-04-24 18:05:00,
2013-04-24 14:10:00,80.0,57.3,30.11,SE,129,0.0,3.0,46,0.00,,,0.00,Weather View 32 v70,2013-04-24 18:10:00,
2013-04-24 14:20:00,79.6,57.5,30.11,ENE,72,4.0,5.0,47,0.00,,,0.00,Weather View 32 v70,2013-04-24 18:20:00,
2013-04-24 14:30:00,79.9,57.8,30.11,NE,54,6.0,10.0,47,0.00,,,0.00,Weather View 32 v70,2013-04-24 18:30:00,
2013-04-24 14:40:00,80.6,56.6,30.11,ESE,113,2.0,10.0,44,0.00,,,0.00,Weather View 32 v70,2013-04-24 18:40:00,
2013-04-24 14:50:00,81.5,58.7,30.11,ESE,109,1.0,10.0,46,0.00,,,0.00,Weather View 32 v70,2013-04-24 18:50:00,
2013-04-24 15:00:00,81.1,56.4,30.10,NNE,30,1.0,10.0,43,0.00,,,0.00,Weather View 32 v70,2013-04-24 19:00:00,
2013-04-24 15:06:00,81.1,56.4,30.10,NNE,30,1.0,10.0,43,0.00,,,0.00,Weather View 32 v70,2013-04-24 19:06:00,
2013-04-24 15:20:00,82.0,58.5,30.09,ENE,59,0.0,10.0,45,0.00,,,0.00,Weather View 32 v70,2013-04-24 19:20:00,
2013-04-24 15:30:00,82.1,57.9,30.09,South,178,1.0,10.0,44,0.00,,,0.00,Weather View 32 v70,2013-04-24 19:30:00,
2013-04-24 15:40:00,82.5,57.0,30.08,NE,43,2.0,6.0,42,0.00,,,0.00,Weather View 32 v70,2013-04-24 19:40:00,
2013-04-24 15:50:00,82.1,59.8,30.08,ENE,67,3.0,6.0,47,0.00,,,0.00,Weather View 32 v70,2013-04-24 19:50:00,
2013-04-24 16:00:00,82.9,57.4,30.08,SSW,206,0.0,6.0,42,0.00,,,0.00,Weather View 32 v70,2013-04-24 20:00:00,
2013-04-24 16:06:00,82.9,57.4,30.08,SSW,206,0.0,6.0,42,0.00,,,0.00,Weather View 32 v70,2013-04-24 20:06:00,
2013-04-24 16:20:00,83.3,56.4,30.07,SW,234,4.0,6.0,40,0.00,,,0.00,Weather View 32 v70,2013-04-24 20:20:00,
2013-04-24 16:30:00,83.8,57.5,30.07,WNW,286,3.0,6.0,41,0.00,,,0.00,Weather View 32 v70,2013-04-24 20:30:00,
2013-04-24 16:40:00,83.7,58.7,30.07,SW,233,1.0,7.0,43,0.00,,,0.00,Weather View 32 v70,2013-04-24 20:40:00,
2013-04-24 16:50:00,83.0,56.8,30.07,SSE,158,1.0,7.0,41,0.00,,,0.00,Weather View 32 v70,2013-04-24 20:50:00,
2013-04-24 17:00:00,83.6,55.9,30.07,SW,226,0.0,9.0,39,0.00,,,0.00,Weather View 32 v70,2013-04-24 21:00:00,
2013-04-24 17:07:00,83.6,55.9,30.07,SW,226,0.0,9.0,39,0.00,,,0.00,Weather View 32 v70,2013-04-24 21:07:00,
2013-04-24 17:10:00,83.4,56.5,30.07,WNW,286,5.0,9.0,40,0.00,,,0.00,Weather View 32 v70,2013-04-24 21:10:00,
2013-04-24 17:20:00,83.5,55.1,30.07,SSW,194,0.0,9.0,38,0.00,,,0.00,Weather View 32 v70,2013-04-24 21:20:00,
2013-04-24 17:30:00,83.3,55.7,30.07,SE,143,0.0,9.0,39,0.00,,,0.00,Weather View 32 v70,2013-04-24 21:30:00,
2013-04-24 17:40:00,83.3,57.1,30.07,West,275,0.0,9.0,41,0.00,,,0.00,Weather View 32 v70,2013-04-24 21:40:00,
2013-04-24 17:50:00,83.1,55.5,30.07,West,276,2.0,9.0,39,0.00,,,0.00,Weather View 32 v70,2013-04-24 21:50:00,
2013-04-24 18:00:00,82.7,56.5,30.07,WNW,297,1.0,6.0,41,0.00,,,0.00,Weather View 32 v70,2013-04-24 22:00:00,
2013-04-24 18:07:00,82.7,56.5,30.07,WNW,297,1.0,6.0,41,0.00,,,0.00,Weather View 32 v70,2013-04-24 22:07:00,
2013-04-24 18:10:00,82.4,57.6,30.07,NNE,16,0.0,6.0,43,0.00,,,0.00,Weather View 32 v70,2013-04-24 22:10:00,
2013-04-24 18:20:00,81.5,58.7,30.07,NNE,18,0.0,5.0,46,0.00,,,0.00,Weather View 32 v70,2013-04-24 22:20:00,
2013-04-24 18:30:00,81.5,58.7,30.07,NE,48,2.0,5.0,46,0.00,,,0.00,Weather View 32 v70,2013-04-24 22:30:00,
2013-04-24 18:40:00,81.3,60.8,30.08,ENE,67,4.0,7.0,50,0.00,,,0.00,Weather View 32 v70,2013-04-24 22:40:00,
2013-04-24 18:50:00,80.4,63.7,30.08,East,86,5.0,11.0,57,0.00,,,0.00,Weather View 32 v70,2013-04-24 22:50:00,
2013-04-24 19:00:00,79.0,64.3,30.08,ENE,70,5.0,11.0,61,0.00,,,0.00,Weather View 32 v70,2013-04-24 23:00:00,
2013-04-24 19:08:00,79.0,64.3,30.08,ENE,70,5.0,11.0,61,0.00,,,0.00,Weather View 32 v70,2013-04-24 23:08:00,
2013-04-24 19:10:00,78.2,63.6,30.08,ENE,76,5.0,11.0,61,0.00,,,0.00,Weather View 32 v70,2013-04-24 23:10:00,
2013-04-24 19:20:00,77.5,63.9,30.09,ENE,63,8.0,11.0,63,0.00,,,0.00,Weather View 32 v70,2013-04-24 23:20:00,
2013-04-24 19:30:00,76.8,63.7,30.09,ENE,73,5.0,11.0,64,0.00,,,0.00,Weather View 32 v70,2013-04-24 23:30:00,
2013-04-24 19:40:00,76.4,64.6,30.09,ENE,74,3.0,11.0,67,0.00,,,0.00,Weather View 32 v70,2013-04-24 23:40:00,
2013-04-24 19:50:00,76.0,64.2,30.10,ENE,74,3.0,11.0,67,0.00,,,0.00,Weather View 32 v70,2013-04-24 23:50:00,
2013-04-24 20:00:00,75.6,64.3,30.09,East,87,2.0,9.0,68,0.00,,,0.00,Weather View 32 v70,2013-04-25 00:00:00,
2013-04-24 20:09:00,75.6,64.3,30.09,East,87,2.0,9.0,68,0.00,,,0.00,Weather View 32 v70,2013-04-25 00:09:00,
2013-04-24 20:20:00,74.8,63.9,30.10,East,90,3.0,9.0,69,0.00,,,0.00,Weather View 32 v70,2013-04-25 00:20:00,
2013-04-24 20:30:00,74.4,63.9,30.11,East,80,2.0,9.0,70,0.00,,,0.00,Weather View 32 v70,2013-04-25 00:30:00,
2013-04-24 20:40:00,74.0,64.0,30.11,SE,128,1.0,7.0,71,0.00,,,0.00,Weather View 32 v70,2013-04-25 00:40:00,
2013-04-24 20:50:00,73.8,63.4,30.11,East,89,2.0,7.0,70,0.00,,,0.00,Weather View 32 v70,2013-04-25 00:50:00,
2013-04-24 21:00:00,73.5,63.5,30.11,ESE,106,2.0,7.0,71,0.00,,,0.00,Weather View 32 v70,2013-04-25 01:00:00,
2013-04-24 21:09:00,73.5,63.5,30.11,ESE,106,2.0,7.0,71,0.00,,,0.00,Weather View 32 v70,2013-04-25 01:09:00,
2013-04-24 21:10:00,73.2,64.0,30.12,ESE,109,2.0,7.0,73,0.00,,,0.00,Weather View 32 v70,2013-04-25 01:10:00,
2013-04-24 21:20:00,73.0,64.2,30.12,SE,126,2.0,7.0,74,0.00,,,0.00,Weather View 32 v70,2013-04-25 01:20:00,
2013-04-24 21:30:00,72.8,63.6,30.12,ESE,113,3.0,6.0,73,0.00,,,0.00,Weather View 32 v70,2013-04-25 01:30:00,
2013-04-24 21:40:00,72.7,64.3,30.12,ESE,116,2.0,6.0,75,0.00,,,0.00,Weather View 32 v70,2013-04-25 01:40:00,
2013-04-24 21:50:00,72.5,64.1,30.12,ESE,113,1.0,5.0,75,0.00,,,0.00,Weather View 32 v70,2013-04-25 01:50:00,
2013-04-24 22:00:00,72.4,64.0,30.12,ESE,105,3.0,5.0,75,0.00,,,0.00,Weather View 32 v70,2013-04-25 02:00:00,
2013-04-24 22:10:00,72.2,63.8,30.13,ESE,123,3.0,5.0,75,0.00,,,0.00,Weather View 32 v70,2013-04-25 02:10:00,
2013-04-24 22:20:00,72.0,63.6,30.13,ESE,110,1.0,5.0,75,0.00,,,0.00,Weather View 32 v70,2013-04-25 02:20:00,
2013-04-24 22:30:00,71.8,63.8,30.13,SE,132,2.0,5.0,76,0.00,,,0.00,Weather View 32 v70,2013-04-25 02:30:00,
2013-04-24 22:40:00,71.7,63.7,30.14,ESE,107,0.0,5.0,76,0.00,,,0.00,Weather View 32 v70,2013-04-25 02:40:00,
2013-04-24 22:50:00,71.6,64.4,30.13,ESE,123,0.0,5.0,78,0.00,,,0.00,Weather View 32 v70,2013-04-25 02:50:00,
2013-04-24 23:00:00,71.3,64.1,30.13,SE,136,3.0,5.0,78,0.00,,,0.00,Weather View 32 v70,2013-04-25 03:00:00,
2013-04-24 23:10:00,71.0,64.1,30.13,SE,144,3.0,5.0,79,0.00,,,0.00,Weather View 32 v70,2013-04-25 03:10:00,
2013-04-24 23:20:00,70.6,63.7,30.13,SE,139,1.0,5.0,79,0.00,,,0.00,Weather View 32 v70,2013-04-25 03:20:00,
2013-04-24 23:30:00,70.4,63.6,30.13,SSE,149,0.0,5.0,79,0.00,,,0.00,Weather View 32 v70,2013-04-25 03:30:00,
2013-04-24 23:40:00,68.0,62.3,30.14,West,281,0.0,5.0,82,0.00,,,0.00,Weather View 32 v70,2013-04-25 03:40:00,
2013-04-24 23:50:00,67.2,61.8,30.13,West,281,0.0,5.0,83,0.00,,,0.00,Weather View 32 v70,2013-04-25 03:50:00,